CMB811 Details

Departure: Daniel K Inouye International Airport (PHNL)
Arrival: Bucholz AAF Airport (PKWA)
Route: OPIHI2 CHOKO R584 MCFLY R584 MAZZA 1000N/17300E NDJ
Notes: USTRANSCOM CONTRACT FLIGHT | LIMITED FUEL AVBL TO NON-DOD ACFT, TANKERING RCMD


Current Weather Information
PHNL 251053Z 08008KT 10SM FEW026 FEW060 26/19 A3006 RMK AO2 SLP180 T02610194 $
PKWA 251040Z AUTO 07009KT 10SM SCT018 SCT060 28/26 A2991 RMK AO2 T02840258